sensor_id;sensor_type;location;lat;lon;timestamp;P1;durP1;ratioP1;P2;durP2;ratioP2
20611;SDS011;10465;42.686;23.364;2023-02-24T00:01:52;12.90;;;7.55;;
20611;SDS011;10465;42.686;23.364;2023-02-24T00:04:29;10.35;;;7.05;;
20611;SDS011;10465;42.686;23.364;2023-02-24T00:06:57;13.77;;;7.78;;
20611;SDS011;10465;42.686;23.364;2023-02-24T00:09:25;12.93;;;8.07;;
20611;SDS011;10465;42.686;23.364;2023-02-24T00:11:59;11.10;;;7.70;;
20611;SDS011;10465;42.686;23.364;2023-02-24T00:14:30;10.90;;;7.57;;
20611;SDS011;10465;42.686;23.364;2023-02-24T00:16:58;12.35;;;7.80;;
20611;SDS011;10465;42.686;23.364;2023-02-24T00:19:25;13.32;;;8.20;;
20611;SDS011;10465;42.686;23.364;2023-02-24T00:21:53;13.40;;;7.85;;
20611;SDS011;10465;42.686;23.364;2023-02-24T00:24:19;12.95;;;8.10;;
20611;SDS011;10465;42.686;23.364;2023-02-24T00:26:45;14.45;;;9.02;;
20611;SDS011;10465;42.686;23.364;2023-02-24T00:29:18;12.32;;;8.10;;
20611;SDS011;10465;42.686;23.364;2023-02-24T00:31:44;13.18;;;7.85;;
20611;SDS011;10465;42.686;23.364;2023-02-24T00:34:11;10.93;;;7.20;;
20611;SDS011;10465;42.686;23.364;2023-02-24T00:36:36;10.13;;;7.53;;
20611;SDS011;10465;42.686;23.364;2023-02-24T00:39:04;9.00;;;6.85;;
20611;SDS011;10465;42.686;23.364;2023-02-24T00:41:35;12.25;;;7.47;;
20611;SDS011;10465;42.686;23.364;2023-02-24T00:44:04;10.40;;;7.00;;
20611;SDS011;10465;42.686;23.364;2023-02-24T00:46:34;11.35;;;7.35;;
20611;SDS011;10465;42.686;23.364;2023-02-24T00:49:02;10.30;;;6.78;;
20611;SDS011;10465;42.686;23.364;2023-02-24T00:51:38;10.30;;;6.93;;
20611;SDS011;10465;42.686;23.364;2023-02-24T00:54:06;10.57;;;7.03;;
20611;SDS011;10465;42.686;23.364;2023-02-24T00:56:33;9.93;;;7.00;;
20611;SDS011;10465;42.686;23.364;2023-02-24T00:58:58;12.02;;;7.50;;
20611;SDS011;10465;42.686;23.364;2023-02-24T01:01:29;11.55;;;7.07;;
20611;SDS011;10465;42.686;23.364;2023-02-24T01:03:56;10.35;;;7.10;;
20611;SDS011;10465;42.686;23.364;2023-02-24T01:06:25;11.48;;;7.43;;
20611;SDS011;10465;42.686;23.364;2023-02-24T01:08:53;10.60;;;7.45;;
20611;SDS011;10465;42.686;23.364;2023-02-24T01:11:21;11.32;;;6.90;;
20611;SDS011;10465;42.686;23.364;2023-02-24T01:14:15;10.18;;;7.25;;
20611;SDS011;10465;42.686;23.364;2023-02-24T01:16:42;11.50;;;7.43;;
20611;SDS011;10465;42.686;23.364;2023-02-24T01:19:15;11.43;;;7.68;;
20611;SDS011;10465;42.686;23.364;2023-02-24T01:21:44;10.55;;;7.55;;
20611;SDS011;10465;42.686;23.364;2023-02-24T01:24:11;9.73;;;6.90;;
20611;SDS011;10465;42.686;23.364;2023-02-24T01:26:39;9.50;;;6.97;;
20611;SDS011;10465;42.686;23.364;2023-02-24T01:29:05;9.52;;;6.78;;
20611;SDS011;10465;42.686;23.364;2023-02-24T01:31:34;15.20;;;6.53;;
20611;SDS011;10465;42.686;23.364;2023-02-24T01:34:02;10.13;;;7.20;;
20611;SDS011;10465;42.686;23.364;2023-02-24T01:36:30;7.63;;;5.85;;
20611;SDS011;10465;42.686;23.364;2023-02-24T01:38:57;9.77;;;6.68;;
20611;SDS011;10465;42.686;23.364;2023-02-24T01:41:24;9.98;;;6.38;;
20611;SDS011;10465;42.686;23.364;2023-02-24T01:46:37;10.52;;;7.43;;
20611;SDS011;10465;42.686;23.364;2023-02-24T01:51:52;9.90;;;6.43;;
20611;SDS011;10465;42.686;23.364;2023-02-24T01:54:27;9.90;;;6.40;;
20611;SDS011;10465;42.686;23.364;2023-02-24T01:56:57;7.70;;;5.93;;
20611;SDS011;10465;42.686;23.364;2023-02-24T01:59:23;9.98;;;6.22;;
20611;SDS011;10465;42.686;23.364;2023-02-24T02:01:53;8.38;;;6.18;;
20611;SDS011;10465;42.686;23.364;2023-02-24T02:05:02;9.27;;;6.35;;
20611;SDS011;10465;42.686;23.364;2023-02-24T02:07:22;8.95;;;5.28;;
20611;SDS011;10465;42.686;23.364;2023-02-24T02:09:50;7.88;;;5.40;;
20611;SDS011;10465;42.686;23.364;2023-02-24T02:12:19;10.00;;;5.68;;
20611;SDS011;10465;42.686;23.364;2023-02-24T02:14:49;7.18;;;5.10;;
20611;SDS011;10465;42.686;23.364;2023-02-24T02:23:07;6.97;;;5.25;;
20611;SDS011;10465;42.686;23.364;2023-02-24T02:31:53;8.73;;;5.85;;
20611;SDS011;10465;42.686;23.364;2023-02-24T02:34:51;7.65;;;5.55;;
20611;SDS011;10465;42.686;23.364;2023-02-24T02:40:30;8.27;;;5.63;;
20611;SDS011;10465;42.686;23.364;2023-02-24T02:43:19;11.30;;;6.05;;
20611;SDS011;10465;42.686;23.364;2023-02-24T02:46:23;8.05;;;5.50;;
20611;SDS011;10465;42.686;23.364;2023-02-24T02:49:01;9.45;;;5.35;;
20611;SDS011;10465;42.686;23.364;2023-02-24T02:51:41;10.07;;;5.68;;
20611;SDS011;10465;42.686;23.364;2023-02-24T02:54:17;10.10;;;6.18;;
20611;SDS011;10465;42.686;23.364;2023-02-24T02:59:28;10.38;;;6.50;;
20611;SDS011;10465;42.686;23.364;2023-02-24T03:01:56;11.57;;;6.70;;
20611;SDS011;10465;42.686;23.364;2023-02-24T03:04:36;11.13;;;6.97;;
20611;SDS011;10465;42.686;23.364;2023-02-24T03:07:06;9.18;;;6.35;;
20611;SDS011;10465;42.686;23.364;2023-02-24T03:09:39;9.73;;;7.00;;
20611;SDS011;10465;42.686;23.364;2023-02-24T03:12:13;12.07;;;7.22;;
20611;SDS011;10465;42.686;23.364;2023-02-24T03:14:44;9.98;;;6.80;;
20611;SDS011;10465;42.686;23.364;2023-02-24T03:17:16;10.57;;;6.53;;
20611;SDS011;10465;42.686;23.364;2023-02-24T03:19:49;9.82;;;6.50;;
20611;SDS011;10465;42.686;23.364;2023-02-24T03:22:30;7.70;;;5.68;;
20611;SDS011;10465;42.686;23.364;2023-02-24T03:25:01;8.35;;;6.15;;
20611;SDS011;10465;42.686;23.364;2023-02-24T03:27:34;9.48;;;6.30;;
20611;SDS011;10465;42.686;23.364;2023-02-24T03:30:14;8.63;;;6.18;;
20611;SDS011;10465;42.686;23.364;2023-02-24T03:32:50;8.82;;;6.30;;
20611;SDS011;10465;42.686;23.364;2023-02-24T03:35:26;8.80;;;5.70;;
20611;SDS011;10465;42.686;23.364;2023-02-24T03:37:54;10.20;;;5.60;;
20611;SDS011;10465;42.686;23.364;2023-02-24T03:40:23;8.60;;;5.63;;
20611;SDS011;10465;42.686;23.364;2023-02-24T03:42:59;9.18;;;5.55;;
20611;SDS011;10465;42.686;23.364;2023-02-24T03:45:30;8.20;;;5.40;;
20611;SDS011;10465;42.686;23.364;2023-02-24T03:47:59;7.65;;;5.13;;
20611;SDS011;10465;42.686;23.364;2023-02-24T03:50:27;6.47;;;4.70;;
20611;SDS011;10465;42.686;23.364;2023-02-24T03:53:02;7.32;;;4.93;;
20611;SDS011;10465;42.686;23.364;2023-02-24T03:56:07;6.88;;;4.78;;
20611;SDS011;10465;42.686;23.364;2023-02-24T04:01:24;8.32;;;5.47;;
20611;SDS011;10465;42.686;23.364;2023-02-24T04:09:09;8.15;;;4.88;;
20611;SDS011;10465;42.686;23.364;2023-02-24T04:11:43;8.60;;;5.05;;
20611;SDS011;10465;42.686;23.364;2023-02-24T04:14:32;9.15;;;5.15;;
20611;SDS011;10465;42.686;23.364;2023-02-24T04:17:12;7.72;;;5.40;;
20611;SDS011;10465;42.686;23.364;2023-02-24T04:19:45;8.02;;;4.80;;
20611;SDS011;10465;42.686;23.364;2023-02-24T04:22:14;7.30;;;4.57;;
20611;SDS011;10465;42.686;23.364;2023-02-24T04:24:43;8.02;;;4.60;;
20611;SDS011;10465;42.686;23.364;2023-02-24T04:27:14;9.00;;;4.75;;
20611;SDS011;10465;42.686;23.364;2023-02-24T04:29:44;6.53;;;4.47;;
20611;SDS011;10465;42.686;23.364;2023-02-24T04:32:20;11.38;;;5.20;;
20611;SDS011;10465;42.686;23.364;2023-02-24T04:34:50;7.97;;;5.35;;
20611;SDS011;10465;42.686;23.364;2023-02-24T04:37:16;7.38;;;5.20;;
20611;SDS011;10465;42.686;23.364;2023-02-24T04:39:47;7.28;;;5.43;;
20611;SDS011;10465;42.686;23.364;2023-02-24T04:42:14;7.93;;;4.60;;
20611;SDS011;10465;42.686;23.364;2023-02-24T04:44:40;6.13;;;4.38;;
20611;SDS011;10465;42.686;23.364;2023-02-24T04:47:08;8.07;;;5.65;;
20611;SDS011;10465;42.686;23.364;2023-02-24T04:49:35;8.00;;;4.90;;
20611;SDS011;10465;42.686;23.364;2023-02-24T04:52:00;7.78;;;4.97;;
20611;SDS011;10465;42.686;23.364;2023-02-24T04:54:26;9.40;;;5.22;;
20611;SDS011;10465;42.686;23.364;2023-02-24T04:56:53;10.65;;;5.70;;
20611;SDS011;10465;42.686;23.364;2023-02-24T04:59:20;11.85;;;6.35;;
20611;SDS011;10465;42.686;23.364;2023-02-24T05:01:47;15.10;;;7.90;;
20611;SDS011;10465;42.686;23.364;2023-02-24T05:04:15;19.10;;;9.40;;
20611;SDS011;10465;42.686;23.364;2023-02-24T05:06:42;17.80;;;9.65;;
20611;SDS011;10465;42.686;23.364;2023-02-24T05:09:12;13.73;;;8.23;;
20611;SDS011;10465;42.686;23.364;2023-02-24T05:11:44;8.05;;;4.53;;
20611;SDS011;10465;42.686;23.364;2023-02-24T05:14:16;6.15;;;4.10;;
20611;SDS011;10465;42.686;23.364;2023-02-24T05:16:43;7.13;;;4.68;;
20611;SDS011;10465;42.686;23.364;2023-02-24T05:19:10;9.25;;;5.07;;
20611;SDS011;10465;42.686;23.364;2023-02-24T05:21:55;7.20;;;4.13;;
20611;SDS011;10465;42.686;23.364;2023-02-24T05:24:24;6.60;;;4.38;;
20611;SDS011;10465;42.686;23.364;2023-02-24T05:26:53;6.05;;;4.18;;
20611;SDS011;10465;42.686;23.364;2023-02-24T05:29:29;5.93;;;4.60;;
20611;SDS011;10465;42.686;23.364;2023-02-24T05:31:56;6.45;;;4.25;;
20611;SDS011;10465;42.686;23.364;2023-02-24T05:34:26;8.48;;;5.30;;
20611;SDS011;10465;42.686;23.364;2023-02-24T05:36:54;7.63;;;3.92;;
20611;SDS011;10465;42.686;23.364;2023-02-24T05:39:21;5.20;;;3.78;;
20611;SDS011;10465;42.686;23.364;2023-02-24T05:41:47;6.28;;;3.83;;
20611;SDS011;10465;42.686;23.364;2023-02-24T05:44:15;7.00;;;4.20;;
20611;SDS011;10465;42.686;23.364;2023-02-24T05:46:47;8.80;;;4.25;;
20611;SDS011;10465;42.686;23.364;2023-02-24T05:49:15;6.80;;;4.13;;
20611;SDS011;10465;42.686;23.364;2023-02-24T05:51:44;6.13;;;3.95;;
20611;SDS011;10465;42.686;23.364;2023-02-24T05:54:18;5.80;;;4.20;;
20611;SDS011;10465;42.686;23.364;2023-02-24T05:56:45;6.43;;;3.85;;
20611;SDS011;10465;42.686;23.364;2023-02-24T05:59:10;8.48;;;4.53;;
20611;SDS011;10465;42.686;23.364;2023-02-24T06:01:42;6.45;;;3.78;;
20611;SDS011;10465;42.686;23.364;2023-02-24T06:04:11;9.35;;;4.25;;
20611;SDS011;10465;42.686;23.364;2023-02-24T06:06:45;7.63;;;4.65;;
20611;SDS011;10465;42.686;23.364;2023-02-24T06:09:16;8.13;;;4.63;;
20611;SDS011;10465;42.686;23.364;2023-02-24T06:11:43;8.20;;;4.28;;
20611;SDS011;10465;42.686;23.364;2023-02-24T06:14:12;8.48;;;4.65;;
20611;SDS011;10465;42.686;23.364;2023-02-24T06:16:38;9.52;;;4.80;;
20611;SDS011;10465;42.686;23.364;2023-02-24T06:19:05;9.00;;;4.93;;
20611;SDS011;10465;42.686;23.364;2023-02-24T06:21:33;9.25;;;4.85;;
20611;SDS011;10465;42.686;23.364;2023-02-24T06:23:59;8.48;;;5.00;;
20611;SDS011;10465;42.686;23.364;2023-02-24T06:26:25;10.02;;;5.53;;
20611;SDS011;10465;42.686;23.364;2023-02-24T06:28:54;9.98;;;6.00;;
20611;SDS011;10465;42.686;23.364;2023-02-24T06:31:21;11.63;;;5.85;;
20611;SDS011;10465;42.686;23.364;2023-02-24T06:33:46;12.35;;;6.07;;
20611;SDS011;10465;42.686;23.364;2023-02-24T06:36:13;11.68;;;6.50;;
20611;SDS011;10465;42.686;23.364;2023-02-24T06:38:39;11.32;;;5.63;;
20611;SDS011;10465;42.686;23.364;2023-02-24T06:41:05;9.00;;;4.82;;
20611;SDS011;10465;42.686;23.364;2023-02-24T06:43:42;9.25;;;4.95;;
20611;SDS011;10465;42.686;23.364;2023-02-24T06:46:10;8.02;;;4.53;;
20611;SDS011;10465;42.686;23.364;2023-02-24T06:48:37;8.13;;;4.43;;
20611;SDS011;10465;42.686;23.364;2023-02-24T06:51:06;6.68;;;4.35;;
20611;SDS011;10465;42.686;23.364;2023-02-24T06:53:40;8.57;;;4.18;;
20611;SDS011;10465;42.686;23.364;2023-02-24T06:56:10;6.55;;;4.25;;
20611;SDS011;10465;42.686;23.364;2023-02-24T06:58:49;7.88;;;4.97;;
20611;SDS011;10465;42.686;23.364;2023-02-24T07:01:17;8.95;;;5.03;;
20611;SDS011;10465;42.686;23.364;2023-02-24T07:03:45;12.15;;;7.47;;
20611;SDS011;10465;42.686;23.364;2023-02-24T07:06:30;9.35;;;5.88;;
20611;SDS011;10465;42.686;23.364;2023-02-24T07:08:58;8.40;;;4.85;;
20611;SDS011;10465;42.686;23.364;2023-02-24T07:11:26;7.72;;;5.25;;
20611;SDS011;10465;42.686;23.364;2023-02-24T07:13:53;10.25;;;5.25;;
20611;SDS011;10465;42.686;23.364;2023-02-24T07:16:21;9.95;;;4.72;;
20611;SDS011;10465;42.686;23.364;2023-02-24T07:18:56;10.35;;;6.30;;
20611;SDS011;10465;42.686;23.364;2023-02-24T07:21:24;11.48;;;6.57;;
20611;SDS011;10465;42.686;23.364;2023-02-24T07:23:54;11.73;;;7.43;;
20611;SDS011;10465;42.686;23.364;2023-02-24T07:26:21;14.60;;;8.05;;
20611;SDS011;10465;42.686;23.364;2023-02-24T07:28:49;10.75;;;7.03;;
20611;SDS011;10465;42.686;23.364;2023-02-24T07:31:16;16.25;;;7.82;;
20611;SDS011;10465;42.686;23.364;2023-02-24T07:33:45;11.73;;;6.70;;
20611;SDS011;10465;42.686;23.364;2023-02-24T07:36:15;13.70;;;7.22;;
20611;SDS011;10465;42.686;23.364;2023-02-24T07:38:47;10.52;;;5.70;;
20611;SDS011;10465;42.686;23.364;2023-02-24T07:41:18;10.43;;;5.25;;
20611;SDS011;10465;42.686;23.364;2023-02-24T07:43:46;12.27;;;5.60;;
20611;SDS011;10465;42.686;23.364;2023-02-24T07:46:17;12.80;;;5.90;;
20611;SDS011;10465;42.686;23.364;2023-02-24T07:48:45;10.65;;;5.95;;
20611;SDS011;10465;42.686;23.364;2023-02-24T07:51:11;11.10;;;5.90;;
20611;SDS011;10465;42.686;23.364;2023-02-24T07:53:39;13.82;;;6.95;;
20611;SDS011;10465;42.686;23.364;2023-02-24T07:58:37;10.18;;;6.65;;
20611;SDS011;10465;42.686;23.364;2023-02-24T08:01:06;14.18;;;8.35;;
20611;SDS011;10465;42.686;23.364;2023-02-24T08:03:36;13.45;;;7.50;;
20611;SDS011;10465;42.686;23.364;2023-02-24T08:06:06;12.38;;;7.90;;
20611;SDS011;10465;42.686;23.364;2023-02-24T08:08:51;10.50;;;6.60;;
20611;SDS011;10465;42.686;23.364;2023-02-24T08:11:28;12.52;;;7.50;;
20611;SDS011;10465;42.686;23.364;2023-02-24T08:14:03;12.10;;;7.40;;
20611;SDS011;10465;42.686;23.364;2023-02-24T08:16:35;13.05;;;7.95;;
20611;SDS011;10465;42.686;23.364;2023-02-24T08:19:21;15.60;;;8.73;;
20611;SDS011;10465;42.686;23.364;2023-02-24T08:21:48;15.15;;;8.85;;
20611;SDS011;10465;42.686;23.364;2023-02-24T08:24:16;15.30;;;7.85;;
20611;SDS011;10465;42.686;23.364;2023-02-24T08:26:47;14.38;;;7.88;;
20611;SDS011;10465;42.686;23.364;2023-02-24T08:29:29;14.02;;;7.82;;
20611;SDS011;10465;42.686;23.364;2023-02-24T08:32:04;11.95;;;6.72;;
20611;SDS011;10465;42.686;23.364;2023-02-24T08:34:33;13.23;;;7.35;;
20611;SDS011;10465;42.686;23.364;2023-02-24T08:36:59;10.38;;;6.22;;
20611;SDS011;10465;42.686;23.364;2023-02-24T08:39:25;11.60;;;6.80;;
20611;SDS011;10465;42.686;23.364;2023-02-24T08:41:54;10.90;;;6.93;;
20611;SDS011;10465;42.686;23.364;2023-02-24T08:44:21;13.38;;;8.13;;
20611;SDS011;10465;42.686;23.364;2023-02-24T08:46:47;11.30;;;7.35;;
20611;SDS011;10465;42.686;23.364;2023-02-24T08:49:15;13.63;;;8.27;;
20611;SDS011;10465;42.686;23.364;2023-02-24T08:51:42;12.13;;;6.85;;
20611;SDS011;10465;42.686;23.364;2023-02-24T08:54:14;12.98;;;7.22;;
20611;SDS011;10465;42.686;23.364;2023-02-24T08:56:42;15.32;;;7.80;;
20611;SDS011;10465;42.686;23.364;2023-02-24T08:59:20;13.27;;;7.47;;
20611;SDS011;10465;42.686;23.364;2023-02-24T09:02:12;10.25;;;6.80;;
20611;SDS011;10465;42.686;23.364;2023-02-24T09:04:47;12.27;;;7.63;;
20611;SDS011;10465;42.686;23.364;2023-02-24T09:07:19;12.25;;;7.05;;
20611;SDS011;10465;42.686;23.364;2023-02-24T09:09:47;10.93;;;6.75;;
20611;SDS011;10465;42.686;23.364;2023-02-24T09:12:13;11.88;;;6.40;;
20611;SDS011;10465;42.686;23.364;2023-02-24T09:14:46;11.45;;;6.80;;
20611;SDS011;10465;42.686;23.364;2023-02-24T09:17:13;10.38;;;6.38;;
20611;SDS011;10465;42.686;23.364;2023-02-24T09:19:48;11.80;;;6.90;;
20611;SDS011;10465;42.686;23.364;2023-02-24T09:22:18;14.35;;;7.38;;
20611;SDS011;10465;42.686;23.364;2023-02-24T09:25:05;13.05;;;7.10;;
20611;SDS011;10465;42.686;23.364;2023-02-24T09:27:46;12.15;;;6.68;;
20611;SDS011;10465;42.686;23.364;2023-02-24T09:30:19;12.13;;;6.63;;
20611;SDS011;10465;42.686;23.364;2023-02-24T09:33:00;11.63;;;6.93;;
20611;SDS011;10465;42.686;23.364;2023-02-24T09:35:56;11.70;;;6.38;;
20611;SDS011;10465;42.686;23.364;2023-02-24T09:38:52;10.32;;;6.55;;
20611;SDS011;10465;42.686;23.364;2023-02-24T09:47:02;13.82;;;7.50;;
20611;SDS011;10465;42.686;23.364;2023-02-24T09:49:55;11.15;;;6.97;;
20611;SDS011;10465;42.686;23.364;2023-02-24T09:52:27;13.82;;;7.57;;
20611;SDS011;10465;42.686;23.364;2023-02-24T09:58:18;14.48;;;7.70;;
20611;SDS011;10465;42.686;23.364;2023-02-24T10:03:44;12.85;;;8.30;;
20611;SDS011;10465;42.686;23.364;2023-02-24T10:11:52;12.48;;;7.72;;
20611;SDS011;10465;42.686;23.364;2023-02-24T10:14:49;15.48;;;8.63;;
20611;SDS011;10465;42.686;23.364;2023-02-24T10:17:38;15.13;;;8.55;;
20611;SDS011;10465;42.686;23.364;2023-02-24T10:20:10;14.73;;;8.18;;
20611;SDS011;10465;42.686;23.364;2023-02-24T10:22:54;14.00;;;8.55;;
20611;SDS011;10465;42.686;23.364;2023-02-24T10:25:33;16.52;;;9.50;;
20611;SDS011;10465;42.686;23.364;2023-02-24T10:33:27;14.25;;;8.65;;
20611;SDS011;10465;42.686;23.364;2023-02-24T10:38:42;13.63;;;8.88;;
20611;SDS011;10465;42.686;23.364;2023-02-24T10:41:14;15.60;;;8.60;;
20611;SDS011;10465;42.686;23.364;2023-02-24T10:43:51;25.08;;;12.15;;
20611;SDS011;10465;42.686;23.364;2023-02-24T10:46:25;15.70;;;9.13;;
20611;SDS011;10465;42.686;23.364;2023-02-24T10:48:58;14.27;;;8.95;;
20611;SDS011;10465;42.686;23.364;2023-02-24T10:51:27;18.25;;;9.90;;
20611;SDS011;10465;42.686;23.364;2023-02-24T10:56:52;19.48;;;11.05;;
20611;SDS011;10465;42.686;23.364;2023-02-24T11:02:33;15.50;;;9.95;;
20611;SDS011;10465;42.686;23.364;2023-02-24T11:05:20;13.88;;;9.00;;
20611;SDS011;10465;42.686;23.364;2023-02-24T11:08:17;17.92;;;9.68;;
20611;SDS011;10465;42.686;23.364;2023-02-24T11:11:15;15.65;;;9.93;;
20611;SDS011;10465;42.686;23.364;2023-02-24T11:13:50;15.85;;;9.90;;
20611;SDS011;10465;42.686;23.364;2023-02-24T11:16:40;16.23;;;10.13;;
20611;SDS011;10465;42.686;23.364;2023-02-24T11:19:33;14.10;;;9.35;;
20611;SDS011;10465;42.686;23.364;2023-02-24T11:22:06;17.50;;;9.48;;
20611;SDS011;10465;42.686;23.364;2023-02-24T11:24:38;13.93;;;8.45;;
20611;SDS011;10465;42.686;23.364;2023-02-24T11:27:04;17.15;;;10.80;;
20611;SDS011;10465;42.686;23.364;2023-02-24T11:32:38;11.77;;;8.55;;
20611;SDS011;10465;42.686;23.364;2023-02-24T11:35:16;12.38;;;8.95;;
20611;SDS011;10465;42.686;23.364;2023-02-24T11:38:00;11.60;;;8.95;;
20611;SDS011;10465;42.686;23.364;2023-02-24T11:40:37;13.18;;;8.23;;
20611;SDS011;10465;42.686;23.364;2023-02-24T11:48:02;14.57;;;8.45;;
20611;SDS011;10465;42.686;23.364;2023-02-24T11:50:46;15.50;;;9.73;;
20611;SDS011;10465;42.686;23.364;2023-02-24T11:53:24;17.00;;;9.38;;
20611;SDS011;10465;42.686;23.364;2023-02-24T11:58:57;14.02;;;9.70;;
20611;SDS011;10465;42.686;23.364;2023-02-24T12:01:31;17.83;;;10.32;;
20611;SDS011;10465;42.686;23.364;2023-02-24T12:04:15;16.48;;;11.05;;
20611;SDS011;10465;42.686;23.364;2023-02-24T12:09:20;15.43;;;9.93;;
20611;SDS011;10465;42.686;23.364;2023-02-24T12:14:39;13.32;;;10.30;;
20611;SDS011;10465;42.686;23.364;2023-02-24T12:17:14;16.38;;;9.75;;
20611;SDS011;10465;42.686;23.364;2023-02-24T12:22:15;16.92;;;9.80;;
20611;SDS011;10465;42.686;23.364;2023-02-24T12:24:44;14.45;;;9.70;;
20611;SDS011;10465;42.686;23.364;2023-02-24T12:30:27;16.90;;;11.18;;
20611;SDS011;10465;42.686;23.364;2023-02-24T12:36:11;19.08;;;9.95;;
20611;SDS011;10465;42.686;23.364;2023-02-24T12:44:25;14.60;;;10.10;;
20611;SDS011;10465;42.686;23.364;2023-02-24T12:47:04;15.95;;;10.48;;
20611;SDS011;10465;42.686;23.364;2023-02-24T12:52:15;18.63;;;10.70;;
20611;SDS011;10465;42.686;23.364;2023-02-24T13:00:11;17.70;;;11.15;;
20611;SDS011;10465;42.686;23.364;2023-02-24T13:02:46;17.02;;;10.25;;
20611;SDS011;10465;42.686;23.364;2023-02-24T13:05:27;16.20;;;10.63;;
20611;SDS011;10465;42.686;23.364;2023-02-24T13:13:48;13.77;;;9.73;;
20611;SDS011;10465;42.686;23.364;2023-02-24T13:16:32;17.95;;;11.02;;
20611;SDS011;10465;42.686;23.364;2023-02-24T13:21:43;26.92;;;15.30;;
20611;SDS011;10465;42.686;23.364;2023-02-24T13:24:40;24.05;;;13.98;;
20611;SDS011;10465;42.686;23.364;2023-02-24T13:27:19;22.75;;;13.18;;
20611;SDS011;10465;42.686;23.364;2023-02-24T13:30:06;19.00;;;12.57;;
20611;SDS011;10465;42.686;23.364;2023-02-24T13:32:56;18.70;;;12.32;;
20611;SDS011;10465;42.686;23.364;2023-02-24T13:37:50;20.10;;;12.43;;
20611;SDS011;10465;42.686;23.364;2023-02-24T13:45:32;19.52;;;12.93;;
20611;SDS011;10465;42.686;23.364;2023-02-24T13:59:57;26.15;;;16.55;;
20611;SDS011;10465;42.686;23.364;2023-02-24T14:02:47;21.92;;;14.60;;
20611;SDS011;10465;42.686;23.364;2023-02-24T14:05:31;25.35;;;14.70;;
20611;SDS011;10465;42.686;23.364;2023-02-24T14:07:59;22.27;;;13.95;;
20611;SDS011;10465;42.686;23.364;2023-02-24T14:10:27;21.95;;;14.23;;
20611;SDS011;10465;42.686;23.364;2023-02-24T14:13:04;22.55;;;13.25;;
20611;SDS011;10465;42.686;23.364;2023-02-24T14:15:42;19.77;;;12.90;;
20611;SDS011;10465;42.686;23.364;2023-02-24T14:18:20;20.45;;;12.60;;
20611;SDS011;10465;42.686;23.364;2023-02-24T14:20:48;22.35;;;13.45;;
20611;SDS011;10465;42.686;23.364;2023-02-24T14:23:27;20.60;;;13.50;;
20611;SDS011;10465;42.686;23.364;2023-02-24T14:26:01;22.73;;;15.15;;
20611;SDS011;10465;42.686;23.364;2023-02-24T14:28:31;23.73;;;16.33;;
20611;SDS011;10465;42.686;23.364;2023-02-24T14:31:02;25.20;;;17.08;;
20611;SDS011;10465;42.686;23.364;2023-02-24T14:33:34;23.98;;;15.35;;
20611;SDS011;10465;42.686;23.364;2023-02-24T14:36:04;22.88;;;15.15;;
20611;SDS011;10465;42.686;23.364;2023-02-24T14:39:14;25.48;;;16.55;;
20611;SDS011;10465;42.686;23.364;2023-02-24T14:41:41;24.80;;;16.60;;
20611;SDS011;10465;42.686;23.364;2023-02-24T14:44:18;25.85;;;16.33;;
20611;SDS011;10465;42.686;23.364;2023-02-24T14:46:46;28.45;;;18.65;;
20611;SDS011;10465;42.686;23.364;2023-02-24T14:49:23;30.38;;;19.02;;
20611;SDS011;10465;42.686;23.364;2023-02-24T14:57:25;29.30;;;19.55;;
20611;SDS011;10465;42.686;23.364;2023-02-24T14:59:59;34.72;;;19.48;;
20611;SDS011;10465;42.686;23.364;2023-02-24T15:02:36;29.58;;;20.55;;
20611;SDS011;10465;42.686;23.364;2023-02-24T15:05:10;30.05;;;19.95;;
20611;SDS011;10465;42.686;23.364;2023-02-24T15:07:36;29.38;;;18.92;;
20611;SDS011;10465;42.686;23.364;2023-02-24T15:10:03;27.30;;;17.80;;
20611;SDS011;10465;42.686;23.364;2023-02-24T15:12:34;25.85;;;17.20;;
20611;SDS011;10465;42.686;23.364;2023-02-24T15:15:13;25.65;;;17.38;;
20611;SDS011;10465;42.686;23.364;2023-02-24T15:17:44;27.23;;;17.75;;
20611;SDS011;10465;42.686;23.364;2023-02-24T15:20:33;25.92;;;16.08;;
20611;SDS011;10465;42.686;23.364;2023-02-24T15:23:01;25.60;;;16.48;;
20611;SDS011;10465;42.686;23.364;2023-02-24T15:25:39;27.27;;;16.48;;
20611;SDS011;10465;42.686;23.364;2023-02-24T15:28:53;25.67;;;16.42;;
20611;SDS011;10465;42.686;23.364;2023-02-24T15:31:07;24.38;;;15.98;;
20611;SDS011;10465;42.686;23.364;2023-02-24T15:33:41;24.48;;;16.23;;
20611;SDS011;10465;42.686;23.364;2023-02-24T15:36:19;23.77;;;16.13;;
20611;SDS011;10465;42.686;23.364;2023-02-24T15:38:48;26.38;;;16.40;;
20611;SDS011;10465;42.686;23.364;2023-02-24T15:41:16;30.63;;;17.10;;
20611;SDS011;10465;42.686;23.364;2023-02-24T15:46:42;29.35;;;16.40;;
20611;SDS011;10465;42.686;23.364;2023-02-24T15:49:02;26.63;;;16.40;;
20611;SDS011;10465;42.686;23.364;2023-02-24T15:54:26;30.77;;;17.83;;
20611;SDS011;10465;42.686;23.364;2023-02-24T15:56:58;26.25;;;17.05;;
20611;SDS011;10465;42.686;23.364;2023-02-24T15:59:25;27.42;;;17.63;;
20611;SDS011;10465;42.686;23.364;2023-02-24T16:01:51;28.27;;;18.13;;
20611;SDS011;10465;42.686;23.364;2023-02-24T16:04:17;32.53;;;19.73;;
20611;SDS011;10465;42.686;23.364;2023-02-24T16:06:43;37.83;;;23.27;;
20611;SDS011;10465;42.686;23.364;2023-02-24T16:09:18;33.17;;;21.02;;
20611;SDS011;10465;42.686;23.364;2023-02-24T16:11:50;40.25;;;21.13;;
20611;SDS011;10465;42.686;23.364;2023-02-24T16:14:16;33.58;;;20.98;;
20611;SDS011;10465;42.686;23.364;2023-02-24T16:16:42;36.92;;;21.15;;
20611;SDS011;10465;42.686;23.364;2023-02-24T16:19:09;32.20;;;21.48;;
20611;SDS011;10465;42.686;23.364;2023-02-24T16:21:38;37.30;;;21.45;;
20611;SDS011;10465;42.686;23.364;2023-02-24T16:24:03;36.25;;;21.55;;
20611;SDS011;10465;42.686;23.364;2023-02-24T16:26:29;37.08;;;20.88;;
20611;SDS011;10465;42.686;23.364;2023-02-24T16:28:59;35.28;;;21.55;;
20611;SDS011;10465;42.686;23.364;2023-02-24T16:31:25;40.63;;;21.73;;
20611;SDS011;10465;42.686;23.364;2023-02-24T16:33:52;34.45;;;22.50;;
20611;SDS011;10465;42.686;23.364;2023-02-24T16:36:18;35.05;;;21.98;;
20611;SDS011;10465;42.686;23.364;2023-02-24T16:38:44;37.10;;;20.98;;
20611;SDS011;10465;42.686;23.364;2023-02-24T16:41:13;40.78;;;21.65;;
20611;SDS011;10465;42.686;23.364;2023-02-24T16:43:39;33.20;;;20.45;;
20611;SDS011;10465;42.686;23.364;2023-02-24T16:46:05;36.80;;;23.15;;
20611;SDS011;10465;42.686;23.364;2023-02-24T16:48:35;33.65;;;21.33;;
20611;SDS011;10465;42.686;23.364;2023-02-24T16:51:04;33.88;;;20.83;;
20611;SDS011;10465;42.686;23.364;2023-02-24T16:53:31;69.93;;;42.13;;
20611;SDS011;10465;42.686;23.364;2023-02-24T16:55:58;93.70;;;57.08;;
20611;SDS011;10465;42.686;23.364;2023-02-24T16:58:24;92.15;;;55.55;;
20611;SDS011;10465;42.686;23.364;2023-02-24T17:00:50;90.38;;;49.63;;
20611;SDS011;10465;42.686;23.364;2023-02-24T17:03:20;86.03;;;48.65;;
20611;SDS011;10465;42.686;23.364;2023-02-24T17:05:47;81.55;;;46.83;;
20611;SDS011;10465;42.686;23.364;2023-02-24T17:08:13;73.07;;;42.20;;
20611;SDS011;10465;42.686;23.364;2023-02-24T17:10:39;57.05;;;33.20;;
20611;SDS011;10465;42.686;23.364;2023-02-24T17:13:06;44.75;;;27.25;;
20611;SDS011;10465;42.686;23.364;2023-02-24T17:15:32;40.13;;;25.02;;